NWS Home NWS Lubbock West Texas Mesonet Latest Conditions as of 0711 PM, Fri Aug 28, 2015

Latest   N   C   S   Daily Sum   3hrΔ   24hrΔ   Soil Data 
Site Map   24hr Precip   72hr Precip   Google Plot


Station Time of Last Temp Dew Pt. RH Wind Direction Wind Speed Wind Gust Max Wind Max Temp Min Temp Max RH Min RH Altimeter 1HR Rain Today's Rain Solar Rad
Abernathy 5ENE  07:05 PM 81 59 50% W1217 29 mph 204° @ 0955 AM 96 61 80 25 29.98" 0 0 2
Aiken 3WSW  07:05 PM 86 56 36% SE79 22 mph 202° @ 0140 PM 96 59 86 28 29.99" 0 0 11
Amarillo 7SSE  07:05 PM 85 61 44% NE1113 24 mph 44° @ 0455 PM 89 67 83 39 30.06" 0 0 104
Amarillo 9NNE  07:05 PM 85 63 47% NE812 21 mph 67° @ 0314 PM 90 66 92 38 30.03" 0 0.06 71
Amherst 1NE  07:05 PM 76 59 58% E1723 34 mph 175° @ 0605 PM 94 63 71 26 30.02" 0 0 7
Andrews 2E  07:05 PM 72 65 81% NE67 46 mph 248° @ 0550 PM 99 70 84 17 30.03" 0.39 1.03 10
Anton 6SSW  07:05 PM 76 66 73% N710 28 mph 283° @ 0555 PM 95 63 77 28 29.99" 0 0.01 24
Aspermont 3NE  07:05 PM 96 44 17% SE710 25 mph 181° @ 0325 PM 103 72 65 13 29.89" 0 0 32
Big Bend NP - Persimmon Gap  07:05 PM 98 48 19% NE610 23 mph 69° @ 0416 PM 100 76 47 18 29.91" 0 0 189
Big Lake 1WNW  07:05 PM 94 39 15% SE1418 26 mph 183° @ 1021 AM 98 66 70 14 29.97" 0 0 209
Bootleg 11WNW  07:05 PM 84 59 43% E1416 25 mph 17° @ 0141 PM 88 62 78 35 30.11" 0 0 158
Boys Ranch 1WSW  07:05 PM 88 55 33% NE910 22 mph 89° @ 0420 PM 92 66 92 31 30.03" 0 0.02 112
Brownfield 2S  07:05 PM 84 55 37% SW1215 22 mph 196° @ 0950 AM 96 66 69 22 29.99" 0 0 40
Canadian 6E  07:05 PM 89 63 43% NE44 26 mph 206° @ 0158 AM 94 69 84 29 29.95" 0 0 91
Caprock Canyons State Park  07:05 PM 86 61 44% NE813 24 mph 197° @ 1247 PM 98 72 61 19 29.96" 0 0 21
Childress 2NNE  07:05 PM 88 58 38% E1418 24 mph 169° @ 0130 AM 97 73 72 26 29.92" 0 0 241
Clarendon 2WSW  07:05 PM 87 59 40% E812 22 mph 227° @ 0230 PM 93 70 79 29 29.99" 0 0.02 74
Claude 12SW  07:05 PM 85 62 45% NE1012 20 mph 332° @ 0225 PM 91 67 80 36 30.03" 0 0.01 70
Clyde 2WNW  07:05 PM 94 53 25% SE89 24 mph 219° @ 0945 AM 99 69 73 18 29.94" 0 0 94
Denver City 7WNW  07:05 PM 79 53 42% S1317 26 mph 174° @ 0610 PM 96 65 68 20 30.01" 0 0.02 39
Dimmitt 2NE  07:05 PM 86 58 39% N1317 24 mph 197° @ 0305 AM 90 64 79 33 30.04" 0 0 182
Dora NM 2SW  07:05 PM 80 54 42% SE1821 25 mph 138° @ 0645 PM 94 66 60 23 30.05" 0 0 71
Dozier 3W  07:05 PM 88 62 42% E1012 18 mph 163° @ 0230 PM 95 71 89 34 29.97" 0 0.01 157
Floydada 2NNE  07:05 PM 87 49 27% S46 24 mph 184° @ 0130 AM 95 66 69 19 29.97" 0 0 38
Fluvanna 3WNW  07:05 PM 93 42 17% SE810 23 mph 194° @ 1105 AM 99 70 63 13 29.94" 0 0 131
Fort Chadbourne  07:05 PM 96 44 17% S78 20 mph 170° @ 0416 PM 101 65 79 14 29.92" 0 0 129
Fort Lancaster  07:05 PM 95 45 18% SE1720 24 mph 148° @ 0211 PM 99 72 58 12 29.92" 0 0 197
Fort McKavett  07:05 PM 95 48 20% SE710 21 mph 202° @ 0103 PM 99 68 72 15 29.96" 0 0 163
Friona 2NE  07:05 PM 85 57 40% NE1316 25 mph 219° @ 0355 AM 90 66 68 31 30.06" 0 0 102
Gail 2ESE  07:05 PM 95 59 31% SW23 20 mph 200° @ 1120 AM 98 69 71 17 29.91" 0 0 111
Goodlett 3W  07:05 PM 89 56 34% E1722 25 mph 67° @ 0625 PM 100 74 73 20 29.89" 0 0 124
Goodnight  07:05 PM 86 62 46% NE78 20 mph 210° @ 0236 AM 92 68 80 35 30.02" 0 0.01 65
Graham 5SSW  07:05 PM 93 40 16% S710 27 mph 176° @ 0215 PM 97 72 55 15 29.95" 0 0 91
Guthrie 10WSW  07:05 PM 95 44 18% SE1421 23 mph 179° @ 0330 PM 102 75 65 12 29.89" 0 0 46
Hart 3N  07:05 PM 87 61 44% NE810 21 mph 179° @ 1205 AM 94 60 88 28 30.01" 0 0 253
Haskell 1NW  07:05 PM 92 48 23% E812 24 mph 158° @ 0140 PM 98 72 64 15 29.90" 0 0 51
Hereford 2NW  07:05 PM 86 55 37% NE1318 22 mph 63° @ 0420 PM 89 66 77 32 30.05" 0 0 119
Hobbs NM 5NW  07:05 PM 71 62 73% S811 42 mph 139° @ 0533 PM 96 68 77 20 30.03" 0.15 0.72 32
Jayton 1SSE  07:05 PM 96 40 15% SE812 22 mph 192° @ 0305 PM 101 73 63 12 29.90" 0 0 58
Junction 1SSW  07:05 PM 95 52 24% S810 16 mph 177° @ 0605 PM 99 66 88 19 29.94" 0 0 127
Knox City 3NW  07:05 PM 95 43 17% E1215 24 mph 183° @ 0220 PM 100 75 57 15 29.89" 0 0 136
Lake Alan Henry 1NW  07:05 PM 92 51 25% SE67 21 mph 201° @ 0738 AM 100 75 55 14 29.91" 0 0 89
Lamesa 2SE  07:05 PM 90 49 25% SE911 23 mph 168° @ 1150 AM 100 66 73 18 29.96" 0 0 54
Levelland 4S  07:05 PM 78 62 59% N35 22 mph 196° @ 0950 AM 95 62 72 22 29.99" 0 0 35
Lomax 1SSE  07:05 PM 94 44 18% SE1012 24 mph 183° @ 0942 AM 101 67 76 13 29.93" 0 0 91
Lubbock 3WNW TTU  07:05 PM 89 50 28% SE79 23 mph 189° @ 1035 AM 97 73 54 24 29.97" 0 0 32
McLean 1E  07:05 PM 85 61 45% E811 23 mph 176° @ 1225 AM 91 67 92 34 29.99" 0 0.09 117
Memphis 1NE  07:05 PM 87 60 41% NE1217 18 mph 51° @ 0530 PM 93 72 79 30 29.94" 0 0 145
Menard 2NW   07:05 PM 96 47 19% S56 20 mph 221° @ 0927 AM 100 69 71 15 29.94" 0 0 137
Mertzon 3NNE  07:05 PM 94 44 18% S1115 23 mph 186° @ 1014 AM 101 70 62 13 29.94" 0 0 41
Morton 1ENE  07:05 PM 76 63 64% SW915 32 mph 120° @ 0520 PM 96 61 77 24 30.02" 0.01 0.01 40
Muleshoe 2SSW  07:05 PM 86 56 37% SE1219 24 mph 44° @ 0600 PM 93 62 84 26 30.03" 0 0.01 117
Northfield 1S  07:05 PM 89 61 40% E1117 22 mph 208° @ 0145 PM 100 72 83 18 29.90" 0 0.01 31
O'Donnell 1N  07:05 PM 92 44 20% S811 23 mph 195° @ 0205 PM 98 65 70 16 29.96" 0 0 57
Odell 4ENE  07:05 PM 82 70 68% E88 23 mph 161° @ 0210 AM 97 73 84 28 29.92" 0 0.01 34
Olton 6S  07:05 PM 64 62 94% SW2638 57 mph 201° @ 0655 PM 94 62 94 25 30.03" 0.64 0.64 6
Paducah 10SW  07:05 PM 93 49 23% SE1620 21 mph 131° @ 0700 PM 101 75 67 17 29.90" 0 0 48
Palo Duro Canyon SP Floor  07:05 PM 92 61 36% NE410 19 mph 357° @ 0432 PM 97 70 84 30 29.98" 0 0.02 158
Palo Duro Canyon State Park Rim  07:05 PM 86 60 42% NE812 28 mph 214° @ 0335 AM 91 72 64 36 30.04" 0 0 86
Pampa 2E  07:05 PM 85 62 47% NE911 19 mph 185° @ 1230 AM 91 67 84 39 30.03" 0 0.03 124
Plains 3N  07:05 PM 82 54 39% S1418 26 mph 201° @ 0345 PM 96 65 66 23 30.03" 0 0 45
Plainview 1S  07:05 PM 82 62 52% SW1321 22 mph 211° @ 0950 AM 96 65 72 25 29.98" 0 0 9
Post 1NE  07:05 PM 92 51 25% SE46 21 mph 186° @ 1255 PM 99 74 52 16 29.92" 0 0 86
Ralls 1SE  07:05 PM 88 50 28% S811 22 mph 199° @ 1130 AM 96 67 66 21 29.98" 0 0 23
Reese Center  07:05 PM 84 60 45% S35 25 mph 200° @ 1130 AM 95 66 66 23 29.98" 0 0 26
Roaring Springs 3N  07:05 PM 93 48 22% SE811 24 mph 182° @ 0520 PM 98 71 80 19 29.94" 0 0.01 41
San Angelo 7NW  07:05 PM 97 36 12% S812 29 mph 153° @ 0340 PM 100 71 55 10 29.92" 0 0 120
Seagraves 1SW  07:05 PM 82 55 39% SW1216 33 mph 201° @ 0515 PM 98 67 67 21 30.00" 0 0 61
Seminole 2NNE  07:05 PM 77 58 53% S1012 37 mph 340° @ 0500 PM 98 72 70 19 30.00" 0 0.28 27
Seymour 3NW  07:05 PM 94 55 28% E1419 27 mph 147° @ 0155 AM 99 72 62 21 29.90" 0 0 145
Silverton 7ESE  07:05 PM 78 64 63% NE1216 23 mph 192° @ 0140 AM 94 66 67 26 30.00" 0.03 0.03 17
Slaton 2NE  07:05 PM 90 52 28% SE78 26 mph 180° @ 0415 PM 97 65 68 19 29.97" 0 0 41
Snyder 3E  07:05 PM 94 41 16% SE1012 24 mph 174° @ 1155 AM 101 71 66 12 29.92" 0 0 89
Spur 1W  07:05 PM 94 37 14% SE914 22 mph 205° @ 0125 PM 100 68 62 11 29.90" 0 0 33
St. Lawrence 5SW  07:05 PM 94 41 16% S1523 23 mph 154° @ 0520 PM 99 66 70 11 29.95" 0 0 239
Sterling City 4WSW  07:05 PM 95 39 14% SE1014 24 mph 165° @ 0922 AM 101 72 60 12 29.94" 0 0 41
Sundown 8WSW  07:05 PM 76 62 64% S1318 27 mph 242° @ 0410 PM 98 62 81 23 30.01" 0 0.21 17
Sweetwater 11SW   07:05 PM 95 44 17% SE1315 23 mph 169° @ 0104 PM 99 71 65 16 29.96" 0 0 190
Tahoka 3NNE  07:05 PM 88 53 30% SE67 22 mph 198° @ 0238 PM 98 68 62 19 29.96" 0 0 52
Tarzan 2WNW  07:05 PM 93 45 19% S67 25 mph 168° @ 1107 AM 99 72 62 19 29.96" 0 0 13
Tatum NM 2SW  07:05 PM 72 58 62% E713 28 mph 143° @ 0520 PM 97 58 78 18 30.04" 0.14 0.15 22
Tulia 2ENE  07:05 PM 92 57 32% E36 19 mph 231° @ 1035 AM 95 63 80 29 30.00" 0 0 217
Turkey 2WSW  07:05 PM 88 60 41% NE1317 24 mph 193° @ 0120 PM 99 70 79 20 29.93" 0 0.11 38
Umbarger 3NNE  07:05 PM 85 62 45% NE1316 24 mph 60° @ 0524 PM 90 66 83 38 30.06" 0 0.03 134
Wall 1E  07:05 PM 98 40 14% S710 23 mph 186° @ 0550 AM 100 72 59 12 29.92" 0 0 122
Weinert 2NNE  07:05 PM 88 58 36% E89 23 mph 159° @ 1225 AM 100 73 63 16 29.91" 0 0 43
White River Lake 6NW  07:05 PM 93 47 21% S78 25 mph 189° @ 1200 PM 100 70 72 16 29.93" 0 0.01 44
Wolfforth 6SSW  07:05 PM 87 54 34% SE34 23 mph 196° @ 1050 AM 97 64 74 24 29.98" 0 0 39

West Texas Mesonet Home   Site Map/Menu  NWS Lubbock Soil Data  Daily Summary Page  24hr Precip  72hr Precip  Google Plot